sensor_id;sensor_type;location;lat;lon;timestamp;P1;durP1;ratioP1;P2;durP2;ratioP2
43994;SDS011;51687;52.160;5.298;2022-11-15T00:00:51;35.15;;;22.85;;
43994;SDS011;51687;52.160;5.298;2022-11-15T00:03:19;30.65;;;23.10;;
43994;SDS011;51687;52.160;5.298;2022-11-15T00:05:48;32.33;;;22.65;;
43994;SDS011;51687;52.160;5.298;2022-11-15T00:08:15;33.90;;;23.05;;
43994;SDS011;51687;52.160;5.298;2022-11-15T00:10:42;35.20;;;24.10;;
43994;SDS011;51687;52.160;5.298;2022-11-15T00:13:19;33.13;;;23.15;;
43994;SDS011;51687;52.160;5.298;2022-11-15T00:15:46;29.95;;;23.77;;
43994;SDS011;51687;52.160;5.298;2022-11-15T00:18:13;29.80;;;23.00;;
43994;SDS011;51687;52.160;5.298;2022-11-15T00:20:40;27.00;;;23.15;;
43994;SDS011;51687;52.160;5.298;2022-11-15T00:23:07;33.55;;;23.60;;
43994;SDS011;51687;52.160;5.298;2022-11-15T00:25:34;34.65;;;25.52;;
43994;SDS011;51687;52.160;5.298;2022-11-15T00:28:02;28.70;;;22.33;;
43994;SDS011;51687;52.160;5.298;2022-11-15T00:30:29;33.35;;;23.77;;
43994;SDS011;51687;52.160;5.298;2022-11-15T00:32:56;38.17;;;25.45;;
43994;SDS011;51687;52.160;5.298;2022-11-15T00:35:27;41.33;;;25.02;;
43994;SDS011;51687;52.160;5.298;2022-11-15T00:37:54;34.85;;;24.42;;
43994;SDS011;51687;52.160;5.298;2022-11-15T00:40:21;37.05;;;24.50;;
43994;SDS011;51687;52.160;5.298;2022-11-15T00:42:47;41.85;;;26.58;;
43994;SDS011;51687;52.160;5.298;2022-11-15T00:45:14;42.03;;;26.45;;
43994;SDS011;51687;52.160;5.298;2022-11-15T00:47:43;38.58;;;26.73;;
43994;SDS011;51687;52.160;5.298;2022-11-15T00:50:11;48.83;;;28.42;;
43994;SDS011;51687;52.160;5.298;2022-11-15T00:52:40;39.38;;;26.67;;
43994;SDS011;51687;52.160;5.298;2022-11-15T00:55:12;38.25;;;25.55;;
43994;SDS011;51687;52.160;5.298;2022-11-15T00:57:43;44.55;;;27.08;;
43994;SDS011;51687;52.160;5.298;2022-11-15T01:00:10;45.05;;;27.40;;
43994;SDS011;51687;52.160;5.298;2022-11-15T01:02:37;40.22;;;26.90;;
43994;SDS011;51687;52.160;5.298;2022-11-15T01:05:04;45.97;;;27.17;;
43994;SDS011;51687;52.160;5.298;2022-11-15T01:07:31;39.83;;;27.80;;
43994;SDS011;51687;52.160;5.298;2022-11-15T01:09:58;40.60;;;27.40;;
43994;SDS011;51687;52.160;5.298;2022-11-15T01:12:25;38.17;;;27.42;;
43994;SDS011;51687;52.160;5.298;2022-11-15T01:14:52;35.95;;;27.35;;
43994;SDS011;51687;52.160;5.298;2022-11-15T01:17:19;37.08;;;26.08;;
43994;SDS011;51687;52.160;5.298;2022-11-15T01:19:45;39.13;;;27.13;;
43994;SDS011;51687;52.160;5.298;2022-11-15T01:22:12;39.20;;;27.33;;
43994;SDS011;51687;52.160;5.298;2022-11-15T01:24:39;38.45;;;27.13;;
43994;SDS011;51687;52.160;5.298;2022-11-15T01:27:06;35.65;;;27.77;;
43994;SDS011;51687;52.160;5.298;2022-11-15T01:29:33;42.42;;;26.40;;
43994;SDS011;51687;52.160;5.298;2022-11-15T01:31:59;40.03;;;28.35;;
43994;SDS011;51687;52.160;5.298;2022-11-15T01:34:27;41.95;;;28.15;;
43994;SDS011;51687;52.160;5.298;2022-11-15T01:36:53;36.45;;;27.02;;
43994;SDS011;51687;52.160;5.298;2022-11-15T01:39:20;41.45;;;27.70;;
43994;SDS011;51687;52.160;5.298;2022-11-15T01:41:47;37.25;;;26.95;;
43994;SDS011;51687;52.160;5.298;2022-11-15T01:47:00;34.17;;;27.27;;
43994;SDS011;51687;52.160;5.298;2022-11-15T01:49:33;37.78;;;27.85;;
43994;SDS011;51687;52.160;5.298;2022-11-15T01:52:05;42.22;;;28.65;;
43994;SDS011;51687;52.160;5.298;2022-11-15T01:54:35;37.17;;;27.27;;
43994;SDS011;51687;52.160;5.298;2022-11-15T01:57:04;38.58;;;27.05;;
43994;SDS011;51687;52.160;5.298;2022-11-15T01:59:39;44.58;;;28.65;;
43994;SDS011;51687;52.160;5.298;2022-11-15T02:02:09;41.40;;;28.30;;
43994;SDS011;51687;52.160;5.298;2022-11-15T02:04:37;37.78;;;27.55;;
43994;SDS011;51687;52.160;5.298;2022-11-15T02:07:08;44.40;;;29.30;;
43994;SDS011;51687;52.160;5.298;2022-11-15T02:09:37;46.97;;;29.85;;
43994;SDS011;51687;52.160;5.298;2022-11-15T02:12:05;43.70;;;29.97;;
43994;SDS011;51687;52.160;5.298;2022-11-15T02:14:34;45.58;;;30.00;;
43994;SDS011;51687;52.160;5.298;2022-11-15T02:19:55;48.92;;;30.10;;
43994;SDS011;51687;52.160;5.298;2022-11-15T02:25:48;47.42;;;27.73;;
43994;SDS011;51687;52.160;5.298;2022-11-15T02:28:44;49.58;;;29.92;;
43994;SDS011;51687;52.160;5.298;2022-11-15T02:34:00;51.22;;;29.30;;
43994;SDS011;51687;52.160;5.298;2022-11-15T02:39:24;50.90;;;28.60;;
43994;SDS011;51687;52.160;5.298;2022-11-15T02:42:02;49.22;;;29.77;;
43994;SDS011;51687;52.160;5.298;2022-11-15T02:44:53;50.63;;;29.05;;
43994;SDS011;51687;52.160;5.298;2022-11-15T02:47:23;46.05;;;28.25;;
43994;SDS011;51687;52.160;5.298;2022-11-15T02:49:58;47.55;;;30.05;;
43994;SDS011;51687;52.160;5.298;2022-11-15T02:52:27;55.50;;;30.35;;
43994;SDS011;51687;52.160;5.298;2022-11-15T02:54:57;44.85;;;28.65;;
43994;SDS011;51687;52.160;5.298;2022-11-15T02:57:45;57.83;;;32.85;;
43994;SDS011;51687;52.160;5.298;2022-11-15T03:00:19;47.55;;;29.85;;
43994;SDS011;51687;52.160;5.298;2022-11-15T03:03:03;52.65;;;30.70;;
43994;SDS011;51687;52.160;5.298;2022-11-15T03:05:59;38.35;;;26.88;;
43994;SDS011;51687;52.160;5.298;2022-11-15T03:09:04;45.38;;;29.45;;
43994;SDS011;51687;52.160;5.298;2022-11-15T03:11:43;58.63;;;29.92;;
43994;SDS011;51687;52.160;5.298;2022-11-15T03:14:30;54.75;;;30.35;;
43994;SDS011;51687;52.160;5.298;2022-11-15T03:19:50;46.33;;;29.25;;
43994;SDS011;51687;52.160;5.298;2022-11-15T03:22:22;50.20;;;31.08;;
43994;SDS011;51687;52.160;5.298;2022-11-15T03:24:53;51.20;;;30.88;;
43994;SDS011;51687;52.160;5.298;2022-11-15T03:27:24;40.08;;;28.25;;
43994;SDS011;51687;52.160;5.298;2022-11-15T03:30:04;50.40;;;29.33;;
43994;SDS011;51687;52.160;5.298;2022-11-15T03:32:34;65.20;;;32.28;;
43994;SDS011;51687;52.160;5.298;2022-11-15T03:35:05;58.92;;;31.02;;
43994;SDS011;51687;52.160;5.298;2022-11-15T03:37:50;47.85;;;29.77;;
43994;SDS011;51687;52.160;5.298;2022-11-15T03:40:30;48.78;;;29.75;;
43994;SDS011;51687;52.160;5.298;2022-11-15T03:45:50;52.30;;;30.70;;
43994;SDS011;51687;52.160;5.298;2022-11-15T03:48:23;41.65;;;28.30;;
43994;SDS011;51687;52.160;5.298;2022-11-15T03:50:53;40.88;;;29.60;;
43994;SDS011;51687;52.160;5.298;2022-11-15T03:53:20;42.33;;;28.52;;
43994;SDS011;51687;52.160;5.298;2022-11-15T03:55:47;47.08;;;29.50;;
43994;SDS011;51687;52.160;5.298;2022-11-15T03:58:14;46.15;;;31.27;;
43994;SDS011;51687;52.160;5.298;2022-11-15T04:00:40;42.72;;;30.63;;
43994;SDS011;51687;52.160;5.298;2022-11-15T04:03:07;41.85;;;29.90;;
43994;SDS011;51687;52.160;5.298;2022-11-15T04:05:34;45.63;;;31.23;;
43994;SDS011;51687;52.160;5.298;2022-11-15T04:08:00;43.53;;;29.98;;
43994;SDS011;51687;52.160;5.298;2022-11-15T04:10:27;41.03;;;28.67;;
43994;SDS011;51687;52.160;5.298;2022-11-15T04:12:54;45.70;;;30.02;;
43994;SDS011;51687;52.160;5.298;2022-11-15T04:15:21;43.85;;;29.33;;
43994;SDS011;51687;52.160;5.298;2022-11-15T04:17:50;40.05;;;28.55;;
43994;SDS011;51687;52.160;5.298;2022-11-15T04:20:21;41.47;;;29.67;;
43994;SDS011;51687;52.160;5.298;2022-11-15T04:25:57;35.90;;;26.35;;
43994;SDS011;51687;52.160;5.298;2022-11-15T04:28:29;41.22;;;27.50;;
43994;SDS011;51687;52.160;5.298;2022-11-15T04:30:56;40.33;;;26.73;;
43994;SDS011;51687;52.160;5.298;2022-11-15T04:33:23;29.98;;;25.13;;
43994;SDS011;51687;52.160;5.298;2022-11-15T04:35:50;33.30;;;25.65;;
43994;SDS011;51687;52.160;5.298;2022-11-15T04:38:36;36.95;;;25.88;;
43994;SDS011;51687;52.160;5.298;2022-11-15T04:41:03;27.95;;;25.08;;
43994;SDS011;51687;52.160;5.298;2022-11-15T04:43:30;37.67;;;27.10;;
43994;SDS011;51687;52.160;5.298;2022-11-15T04:45:57;28.25;;;25.23;;
43994;SDS011;51687;52.160;5.298;2022-11-15T04:48:24;32.38;;;27.15;;
43994;SDS011;51687;52.160;5.298;2022-11-15T04:50:51;38.17;;;26.50;;
43994;SDS011;51687;52.160;5.298;2022-11-15T04:53:17;30.38;;;25.55;;
43994;SDS011;51687;52.160;5.298;2022-11-15T04:55:45;34.05;;;26.55;;
43994;SDS011;51687;52.160;5.298;2022-11-15T04:58:12;27.17;;;24.70;;
43994;SDS011;51687;52.160;5.298;2022-11-15T05:00:39;28.40;;;25.52;;
43994;SDS011;51687;52.160;5.298;2022-11-15T05:03:07;32.30;;;25.58;;
43994;SDS011;51687;52.160;5.298;2022-11-15T05:05:56;25.80;;;23.20;;
43994;SDS011;51687;52.160;5.298;2022-11-15T05:08:23;29.52;;;24.55;;
43994;SDS011;51687;52.160;5.298;2022-11-15T05:10:50;26.35;;;23.30;;
43994;SDS011;51687;52.160;5.298;2022-11-15T05:13:17;26.08;;;23.33;;
43994;SDS011;51687;52.160;5.298;2022-11-15T05:15:44;27.13;;;23.63;;
43994;SDS011;51687;52.160;5.298;2022-11-15T05:18:10;34.63;;;24.60;;
43994;SDS011;51687;52.160;5.298;2022-11-15T05:20:37;25.52;;;23.02;;
43994;SDS011;51687;52.160;5.298;2022-11-15T05:23:04;25.13;;;22.30;;
43994;SDS011;51687;52.160;5.298;2022-11-15T05:25:31;28.95;;;23.65;;
43994;SDS011;51687;52.160;5.298;2022-11-15T05:27:57;26.67;;;22.73;;
43994;SDS011;51687;52.160;5.298;2022-11-15T05:30:24;26.90;;;22.73;;
43994;SDS011;51687;52.160;5.298;2022-11-15T05:32:51;25.27;;;22.73;;
43994;SDS011;51687;52.160;5.298;2022-11-15T05:35:38;26.23;;;23.63;;
43994;SDS011;51687;52.160;5.298;2022-11-15T05:38:07;24.13;;;21.83;;
43994;SDS011;51687;52.160;5.298;2022-11-15T05:40:34;26.55;;;22.10;;
43994;SDS011;51687;52.160;5.298;2022-11-15T05:43:01;25.88;;;23.52;;
43994;SDS011;51687;52.160;5.298;2022-11-15T05:47:57;22.35;;;20.27;;
43994;SDS011;51687;52.160;5.298;2022-11-15T05:52:53;23.58;;;20.95;;
43994;SDS011;51687;52.160;5.298;2022-11-15T05:55:26;26.15;;;23.25;;
43994;SDS011;51687;52.160;5.298;2022-11-15T05:57:52;22.10;;;20.13;;
43994;SDS011;51687;52.160;5.298;2022-11-15T06:00:19;24.40;;;21.90;;
43994;SDS011;51687;52.160;5.298;2022-11-15T06:02:46;24.90;;;22.35;;
43994;SDS011;51687;52.160;5.298;2022-11-15T06:05:13;25.45;;;22.80;;
43994;SDS011;51687;52.160;5.298;2022-11-15T06:07:40;25.98;;;23.60;;
43994;SDS011;51687;52.160;5.298;2022-11-15T06:10:06;27.40;;;23.38;;
43994;SDS011;51687;52.160;5.298;2022-11-15T06:12:34;26.98;;;24.10;;
43994;SDS011;51687;52.160;5.298;2022-11-15T06:15:00;26.50;;;23.48;;
43994;SDS011;51687;52.160;5.298;2022-11-15T06:17:27;25.35;;;21.42;;
43994;SDS011;51687;52.160;5.298;2022-11-15T06:19:55;24.20;;;21.93;;
43994;SDS011;51687;52.160;5.298;2022-11-15T06:22:22;25.15;;;22.65;;
43994;SDS011;51687;52.160;5.298;2022-11-15T06:24:48;24.42;;;21.83;;
43994;SDS011;51687;52.160;5.298;2022-11-15T06:27:15;25.58;;;22.88;;
43994;SDS011;51687;52.160;5.298;2022-11-15T06:29:42;23.33;;;21.27;;
43994;SDS011;51687;52.160;5.298;2022-11-15T06:32:10;24.75;;;22.42;;
43994;SDS011;51687;52.160;5.298;2022-11-15T06:34:37;24.07;;;22.03;;
43994;SDS011;51687;52.160;5.298;2022-11-15T06:37:03;25.02;;;22.42;;
43994;SDS011;51687;52.160;5.298;2022-11-15T06:39:30;24.42;;;22.05;;
43994;SDS011;51687;52.160;5.298;2022-11-15T06:41:57;24.73;;;21.80;;
43994;SDS011;51687;52.160;5.298;2022-11-15T06:44:23;23.63;;;21.60;;
43994;SDS011;51687;52.160;5.298;2022-11-15T06:46:50;24.55;;;21.83;;
43994;SDS011;51687;52.160;5.298;2022-11-15T06:49:17;24.48;;;21.67;;
43994;SDS011;51687;52.160;5.298;2022-11-15T06:51:44;23.45;;;21.15;;
43994;SDS011;51687;52.160;5.298;2022-11-15T06:54:10;23.23;;;20.88;;
43994;SDS011;51687;52.160;5.298;2022-11-15T06:56:37;23.73;;;21.35;;
43994;SDS011;51687;52.160;5.298;2022-11-15T06:59:04;22.55;;;20.52;;
43994;SDS011;51687;52.160;5.298;2022-11-15T07:01:31;23.75;;;21.45;;
43994;SDS011;51687;52.160;5.298;2022-11-15T07:03:57;24.55;;;20.80;;
43994;SDS011;51687;52.160;5.298;2022-11-15T07:06:24;23.20;;;20.80;;
43994;SDS011;51687;52.160;5.298;2022-11-15T07:08:51;23.70;;;21.23;;
43994;SDS011;51687;52.160;5.298;2022-11-15T07:11:18;21.73;;;19.92;;
43994;SDS011;51687;52.160;5.298;2022-11-15T07:13:45;22.58;;;20.27;;
43994;SDS011;51687;52.160;5.298;2022-11-15T07:16:12;21.92;;;19.85;;
43994;SDS011;51687;52.160;5.298;2022-11-15T07:18:39;21.55;;;19.50;;
43994;SDS011;51687;52.160;5.298;2022-11-15T07:21:07;21.40;;;19.17;;
43994;SDS011;51687;52.160;5.298;2022-11-15T07:23:36;21.52;;;19.60;;
43994;SDS011;51687;52.160;5.298;2022-11-15T07:26:07;21.65;;;18.17;;
43994;SDS011;51687;52.160;5.298;2022-11-15T07:28:35;20.33;;;18.48;;
43994;SDS011;51687;52.160;5.298;2022-11-15T07:31:05;25.20;;;20.20;;
43994;SDS011;51687;52.160;5.298;2022-11-15T07:33:34;23.08;;;20.63;;
43994;SDS011;51687;52.160;5.298;2022-11-15T07:36:01;22.80;;;19.92;;
43994;SDS011;51687;52.160;5.298;2022-11-15T07:40:57;21.58;;;19.63;;
43994;SDS011;51687;52.160;5.298;2022-11-15T07:43:25;23.88;;;19.45;;
43994;SDS011;51687;52.160;5.298;2022-11-15T07:45:54;28.60;;;19.50;;
43994;SDS011;51687;52.160;5.298;2022-11-15T07:48:24;22.58;;;20.58;;
43994;SDS011;51687;52.160;5.298;2022-11-15T07:51:10;21.90;;;19.80;;
43994;SDS011;51687;52.160;5.298;2022-11-15T07:53:41;25.67;;;20.85;;
43994;SDS011;51687;52.160;5.298;2022-11-15T07:56:09;22.63;;;20.52;;
43994;SDS011;51687;52.160;5.298;2022-11-15T07:58:36;21.30;;;19.13;;
43994;SDS011;51687;52.160;5.298;2022-11-15T08:01:04;21.63;;;19.45;;
43994;SDS011;51687;52.160;5.298;2022-11-15T08:03:31;21.55;;;19.23;;
43994;SDS011;51687;52.160;5.298;2022-11-15T08:05:59;20.77;;;18.95;;
43994;SDS011;51687;52.160;5.298;2022-11-15T08:08:26;20.30;;;18.00;;
43994;SDS011;51687;52.160;5.298;2022-11-15T08:10:53;23.48;;;20.00;;
43994;SDS011;51687;52.160;5.298;2022-11-15T08:13:20;20.83;;;18.45;;
43994;SDS011;51687;52.160;5.298;2022-11-15T08:15:47;24.67;;;18.52;;
43994;SDS011;51687;52.160;5.298;2022-11-15T08:18:21;24.83;;;18.80;;
43994;SDS011;51687;52.160;5.298;2022-11-15T08:20:49;21.83;;;17.98;;
43994;SDS011;51687;52.160;5.298;2022-11-15T08:23:15;20.42;;;18.45;;
43994;SDS011;51687;52.160;5.298;2022-11-15T08:25:42;19.80;;;17.75;;
43994;SDS011;51687;52.160;5.298;2022-11-15T08:28:09;20.17;;;17.30;;
43994;SDS011;51687;52.160;5.298;2022-11-15T08:30:37;20.17;;;17.52;;
43994;SDS011;51687;52.160;5.298;2022-11-15T08:33:10;18.02;;;16.58;;
43994;SDS011;51687;52.160;5.298;2022-11-15T08:35:38;18.60;;;16.13;;
43994;SDS011;51687;52.160;5.298;2022-11-15T08:38:06;23.17;;;17.08;;
43994;SDS011;51687;52.160;5.298;2022-11-15T08:40:33;18.73;;;15.82;;
43994;SDS011;51687;52.160;5.298;2022-11-15T08:43:00;17.75;;;16.15;;
43994;SDS011;51687;52.160;5.298;2022-11-15T08:45:30;18.23;;;16.50;;
43994;SDS011;51687;52.160;5.298;2022-11-15T08:50:23;18.30;;;16.38;;
43994;SDS011;51687;52.160;5.298;2022-11-15T08:52:50;19.42;;;15.55;;
43994;SDS011;51687;52.160;5.298;2022-11-15T08:55:17;18.38;;;15.57;;
43994;SDS011;51687;52.160;5.298;2022-11-15T08:57:51;17.88;;;15.23;;
43994;SDS011;51687;52.160;5.298;2022-11-15T09:00:23;19.52;;;15.32;;
43994;SDS011;51687;52.160;5.298;2022-11-15T09:02:50;17.13;;;14.90;;
43994;SDS011;51687;52.160;5.298;2022-11-15T09:05:16;16.30;;;14.55;;
43994;SDS011;51687;52.160;5.298;2022-11-15T09:07:44;16.90;;;14.03;;
43994;SDS011;51687;52.160;5.298;2022-11-15T09:10:11;19.23;;;14.93;;
43994;SDS011;51687;52.160;5.298;2022-11-15T09:12:38;15.10;;;13.57;;
43994;SDS011;51687;52.160;5.298;2022-11-15T09:15:05;15.35;;;13.70;;
43994;SDS011;51687;52.160;5.298;2022-11-15T09:17:34;15.63;;;13.43;;
43994;SDS011;51687;52.160;5.298;2022-11-15T09:20:01;14.52;;;12.75;;
43994;SDS011;51687;52.160;5.298;2022-11-15T09:22:28;16.88;;;13.05;;
43994;SDS011;51687;52.160;5.298;2022-11-15T09:24:55;15.20;;;13.68;;
43994;SDS011;51687;52.160;5.298;2022-11-15T09:27:30;13.98;;;12.65;;
43994;SDS011;51687;52.160;5.298;2022-11-15T09:29:57;13.90;;;12.35;;
43994;SDS011;51687;52.160;5.298;2022-11-15T09:32:27;12.00;;;10.35;;
43994;SDS011;51687;52.160;5.298;2022-11-15T09:35:01;13.05;;;10.52;;
43994;SDS011;51687;52.160;5.298;2022-11-15T09:37:31;13.15;;;11.93;;
43994;SDS011;51687;52.160;5.298;2022-11-15T09:39:58;10.90;;;9.80;;
43994;SDS011;51687;52.160;5.298;2022-11-15T09:45:31;10.75;;;9.65;;
43994;SDS011;51687;52.160;5.298;2022-11-15T09:48:20;13.82;;;10.57;;
43994;SDS011;51687;52.160;5.298;2022-11-15T09:50:57;11.57;;;9.88;;
43994;SDS011;51687;52.160;5.298;2022-11-15T09:53:34;11.27;;;9.88;;
43994;SDS011;51687;52.160;5.298;2022-11-15T09:56:29;9.32;;;8.45;;
43994;SDS011;51687;52.160;5.298;2022-11-15T09:59:06;12.82;;;9.32;;
43994;SDS011;51687;52.160;5.298;2022-11-15T10:01:56;10.77;;;7.80;;
43994;SDS011;51687;52.160;5.298;2022-11-15T10:04:44;8.02;;;7.03;;
43994;SDS011;51687;52.160;5.298;2022-11-15T10:07:16;10.85;;;8.10;;
43994;SDS011;51687;52.160;5.298;2022-11-15T10:09:56;10.57;;;7.72;;
43994;SDS011;51687;52.160;5.298;2022-11-15T10:12:28;11.85;;;7.53;;
43994;SDS011;51687;52.160;5.298;2022-11-15T10:15:00;7.40;;;6.70;;
43994;SDS011;51687;52.160;5.298;2022-11-15T10:20:30;7.45;;;6.32;;
43994;SDS011;51687;52.160;5.298;2022-11-15T10:23:05;7.68;;;5.35;;
43994;SDS011;51687;52.160;5.298;2022-11-15T10:25:37;5.75;;;5.00;;
43994;SDS011;51687;52.160;5.298;2022-11-15T10:30:51;8.60;;;5.55;;
43994;SDS011;51687;52.160;5.298;2022-11-15T10:41:17;10.95;;;4.32;;
43994;SDS011;51687;52.160;5.298;2022-11-15T10:46:33;8.13;;;3.88;;
43994;SDS011;51687;52.160;5.298;2022-11-15T10:49:17;4.43;;;3.05;;
43994;SDS011;51687;52.160;5.298;2022-11-15T10:52:33;3.92;;;3.47;;
43994;SDS011;51687;52.160;5.298;2022-11-15T10:54:43;4.30;;;3.60;;
43994;SDS011;51687;52.160;5.298;2022-11-15T10:57:12;5.22;;;3.85;;
43994;SDS011;51687;52.160;5.298;2022-11-15T10:59:43;5.65;;;3.13;;
43994;SDS011;51687;52.160;5.298;2022-11-15T11:04:58;3.45;;;2.95;;
43994;SDS011;51687;52.160;5.298;2022-11-15T11:07:27;4.63;;;3.13;;
43994;SDS011;51687;52.160;5.298;2022-11-15T11:10:00;4.85;;;2.85;;
43994;SDS011;51687;52.160;5.298;2022-11-15T11:13:12;4.18;;;2.40;;
43994;SDS011;51687;52.160;5.298;2022-11-15T11:15:41;2.20;;;1.92;;
43994;SDS011;51687;52.160;5.298;2022-11-15T11:18:18;3.80;;;2.05;;
43994;SDS011;51687;52.160;5.298;2022-11-15T11:20:58;4.57;;;2.08;;
43994;SDS011;51687;52.160;5.298;2022-11-15T11:23:42;3.65;;;1.80;;
43994;SDS011;51687;52.160;5.298;2022-11-15T11:29:20;4.65;;;1.88;;
43994;SDS011;51687;52.160;5.298;2022-11-15T11:32:08;4.13;;;1.52;;
43994;SDS011;51687;52.160;5.298;2022-11-15T11:46:02;3.30;;;1.33;;
43994;SDS011;51687;52.160;5.298;2022-11-15T11:49:07;5.30;;;1.63;;
43994;SDS011;51687;52.160;5.298;2022-11-15T11:51:38;3.67;;;1.77;;
43994;SDS011;51687;52.160;5.298;2022-11-15T11:56:45;4.80;;;1.05;;
43994;SDS011;51687;52.160;5.298;2022-11-15T12:01:45;3.40;;;1.40;;
43994;SDS011;51687;52.160;5.298;2022-11-15T12:14:54;4.07;;;1.23;;
43994;SDS011;51687;52.160;5.298;2022-11-15T12:17:25;5.18;;;1.00;;
43994;SDS011;51687;52.160;5.298;2022-11-15T12:19:58;2.45;;;1.05;;
43994;SDS011;51687;52.160;5.298;2022-11-15T12:22:36;5.65;;;1.67;;
43994;SDS011;51687;52.160;5.298;2022-11-15T12:31:23;3.33;;;1.20;;
43994;SDS011;51687;52.160;5.298;2022-11-15T12:33:56;4.80;;;1.23;;
43994;SDS011;51687;52.160;5.298;2022-11-15T12:36:35;6.47;;;0.98;;
43994;SDS011;51687;52.160;5.298;2022-11-15T12:39:14;9.32;;;1.30;;
43994;SDS011;51687;52.160;5.298;2022-11-15T12:41:42;2.85;;;0.88;;
43994;SDS011;51687;52.160;5.298;2022-11-15T12:52:05;3.10;;;0.90;;
43994;SDS011;51687;52.160;5.298;2022-11-15T13:02:22;6.68;;;1.13;;
43994;SDS011;51687;52.160;5.298;2022-11-15T13:12:54;3.92;;;0.90;;
43994;SDS011;51687;52.160;5.298;2022-11-15T13:20:49;5.25;;;1.23;;
43994;SDS011;51687;52.160;5.298;2022-11-15T13:23:16;5.57;;;0.98;;
43994;SDS011;51687;52.160;5.298;2022-11-15T13:30:49;5.82;;;1.20;;
43994;SDS011;51687;52.160;5.298;2022-11-15T13:33:21;3.45;;;1.10;;
43994;SDS011;51687;52.160;5.298;2022-11-15T13:41:44;2.67;;;0.90;;
43994;SDS011;51687;52.160;5.298;2022-11-15T13:44:01;2.95;;;1.17;;
43994;SDS011;51687;52.160;5.298;2022-11-15T13:46:32;4.45;;;1.38;;
43994;SDS011;51687;52.160;5.298;2022-11-15T13:49:01;3.25;;;1.00;;
43994;SDS011;51687;52.160;5.298;2022-11-15T13:51:46;4.35;;;1.40;;
43994;SDS011;51687;52.160;5.298;2022-11-15T13:57:07;5.35;;;1.20;;
43994;SDS011;51687;52.160;5.298;2022-11-15T13:59:45;3.40;;;1.23;;
43994;SDS011;51687;52.160;5.298;2022-11-15T14:02:27;2.90;;;1.63;;
43994;SDS011;51687;52.160;5.298;2022-11-15T14:05:14;3.53;;;1.27;;
43994;SDS011;51687;52.160;5.298;2022-11-15T14:07:53;5.82;;;1.63;;
43994;SDS011;51687;52.160;5.298;2022-11-15T14:10:34;5.53;;;1.17;;
43994;SDS011;51687;52.160;5.298;2022-11-15T14:13:10;5.18;;;1.23;;
43994;SDS011;51687;52.160;5.298;2022-11-15T14:15:53;4.63;;;1.70;;
43994;SDS011;51687;52.160;5.298;2022-11-15T14:21:09;3.42;;;1.20;;
43994;SDS011;51687;52.160;5.298;2022-11-15T14:23:35;5.00;;;1.40;;
43994;SDS011;51687;52.160;5.298;2022-11-15T14:26:02;3.25;;;1.30;;
43994;SDS011;51687;52.160;5.298;2022-11-15T14:28:37;2.65;;;1.23;;
43994;SDS011;51687;52.160;5.298;2022-11-15T14:31:09;4.15;;;1.48;;
43994;SDS011;51687;52.160;5.298;2022-11-15T14:33:39;7.95;;;1.73;;
43994;SDS011;51687;52.160;5.298;2022-11-15T14:38:41;5.63;;;1.48;;
43994;SDS011;51687;52.160;5.298;2022-11-15T14:41:17;4.57;;;1.65;;
43994;SDS011;51687;52.160;5.298;2022-11-15T14:43:49;5.85;;;1.60;;
43994;SDS011;51687;52.160;5.298;2022-11-15T14:46:16;2.72;;;1.10;;
43994;SDS011;51687;52.160;5.298;2022-11-15T14:48:43;4.90;;;1.77;;
43994;SDS011;51687;52.160;5.298;2022-11-15T14:51:14;3.80;;;1.10;;
43994;SDS011;51687;52.160;5.298;2022-11-15T14:53:43;2.83;;;1.33;;
43994;SDS011;51687;52.160;5.298;2022-11-15T14:56:10;3.55;;;1.30;;
43994;SDS011;51687;52.160;5.298;2022-11-15T14:58:38;3.72;;;1.42;;
43994;SDS011;51687;52.160;5.298;2022-11-15T15:03:51;2.92;;;1.30;;
43994;SDS011;51687;52.160;5.298;2022-11-15T15:06:22;2.90;;;0.98;;
43994;SDS011;51687;52.160;5.298;2022-11-15T15:08:48;4.10;;;1.10;;
43994;SDS011;51687;52.160;5.298;2022-11-15T15:11:23;3.53;;;1.15;;
43994;SDS011;51687;52.160;5.298;2022-11-15T15:13:53;3.97;;;1.35;;
43994;SDS011;51687;52.160;5.298;2022-11-15T15:16:24;2.60;;;1.08;;
43994;SDS011;51687;52.160;5.298;2022-11-15T15:18:51;3.45;;;1.30;;
43994;SDS011;51687;52.160;5.298;2022-11-15T15:21:21;5.95;;;1.25;;
43994;SDS011;51687;52.160;5.298;2022-11-15T15:23:50;2.58;;;0.85;;
43994;SDS011;51687;52.160;5.298;2022-11-15T15:26:19;2.42;;;0.85;;
43994;SDS011;51687;52.160;5.298;2022-11-15T15:28:48;3.40;;;1.10;;
43994;SDS011;51687;52.160;5.298;2022-11-15T15:31:17;2.88;;;1.23;;
43994;SDS011;51687;52.160;5.298;2022-11-15T15:33:44;3.70;;;1.10;;
43994;SDS011;51687;52.160;5.298;2022-11-15T15:36:12;3.47;;;1.13;;
43994;SDS011;51687;52.160;5.298;2022-11-15T15:38:40;4.82;;;1.25;;
43994;SDS011;51687;52.160;5.298;2022-11-15T15:41:11;4.85;;;1.15;;
43994;SDS011;51687;52.160;5.298;2022-11-15T15:43:38;2.80;;;1.35;;
43994;SDS011;51687;52.160;5.298;2022-11-15T15:46:12;3.38;;;1.77;;
43994;SDS011;51687;52.160;5.298;2022-11-15T15:48:43;3.10;;;1.20;;
43994;SDS011;51687;52.160;5.298;2022-11-15T15:51:11;2.83;;;1.10;;
43994;SDS011;51687;52.160;5.298;2022-11-15T15:53:45;3.58;;;1.00;;
43994;SDS011;51687;52.160;5.298;2022-11-15T15:56:12;2.35;;;1.23;;
43994;SDS011;51687;52.160;5.298;2022-11-15T15:58:39;2.75;;;1.00;;
43994;SDS011;51687;52.160;5.298;2022-11-15T16:01:05;3.30;;;1.30;;
43994;SDS011;51687;52.160;5.298;2022-11-15T16:03:32;5.85;;;1.17;;
43994;SDS011;51687;52.160;5.298;2022-11-15T16:05:59;3.63;;;1.42;;
43994;SDS011;51687;52.160;5.298;2022-11-15T16:08:27;6.60;;;1.20;;
43994;SDS011;51687;52.160;5.298;2022-11-15T16:11:15;3.10;;;1.10;;
43994;SDS011;51687;52.160;5.298;2022-11-15T16:13:42;5.07;;;1.15;;
43994;SDS011;51687;52.160;5.298;2022-11-15T16:16:09;2.72;;;1.02;;
43994;SDS011;51687;52.160;5.298;2022-11-15T16:18:39;4.40;;;1.17;;
43994;SDS011;51687;52.160;5.298;2022-11-15T16:21:07;5.18;;;1.92;;
43994;SDS011;51687;52.160;5.298;2022-11-15T16:23:34;4.30;;;0.90;;
43994;SDS011;51687;52.160;5.298;2022-11-15T16:26:00;2.65;;;1.02;;
43994;SDS011;51687;52.160;5.298;2022-11-15T16:28:29;2.17;;;1.10;;
43994;SDS011;51687;52.160;5.298;2022-11-15T16:31:03;3.08;;;0.90;;
43994;SDS011;51687;52.160;5.298;2022-11-15T16:33:30;3.40;;;1.00;;
43994;SDS011;51687;52.160;5.298;2022-11-15T16:35:58;4.40;;;1.20;;
43994;SDS011;51687;52.160;5.298;2022-11-15T16:38:25;1.95;;;1.02;;
43994;SDS011;51687;52.160;5.298;2022-11-15T16:40:51;3.22;;;1.10;;
43994;SDS011;51687;52.160;5.298;2022-11-15T16:43:18;5.38;;;1.20;;
43994;SDS011;51687;52.160;5.298;2022-11-15T16:45:45;4.47;;;1.30;;
43994;SDS011;51687;52.160;5.298;2022-11-15T16:48:22;5.28;;;1.08;;
43994;SDS011;51687;52.160;5.298;2022-11-15T16:53:21;6.57;;;3.53;;
43994;SDS011;51687;52.160;5.298;2022-11-15T16:55:48;3.30;;;1.25;;
43994;SDS011;51687;52.160;5.298;2022-11-15T16:58:15;6.22;;;1.30;;
43994;SDS011;51687;52.160;5.298;2022-11-15T17:00:42;2.42;;;1.00;;
43994;SDS011;51687;52.160;5.298;2022-11-15T17:03:09;2.70;;;1.30;;
43994;SDS011;51687;52.160;5.298;2022-11-15T17:05:36;3.80;;;1.10;;
43994;SDS011;51687;52.160;5.298;2022-11-15T17:08:03;1.85;;;1.15;;
43994;SDS011;51687;52.160;5.298;2022-11-15T17:10:30;3.28;;;1.40;;
43994;SDS011;51687;52.160;5.298;2022-11-15T17:12:56;2.58;;;1.10;;
43994;SDS011;51687;52.160;5.298;2022-11-15T17:15:23;2.78;;;1.25;;